ADDS METAR Data INFO
IDs: Format: Raw Decoded Include TAF

Data at: 0621 UTC 23 Feb 2018

METAR for:KFFO (Wright-Patterson AFB, OH, US)
Text:KFFO 230556Z 13005KT 2SM -DZ BR OVC002 07/06 A3035 RMK AO2A SLP285 P0000 60000 T00650058 10076 20064 58010
Temperature: 6.5°C ( 44°F)
Dewpoint: 5.8°C ( 42°F) [RH = 95%]
Pressure (altimeter):30.35 inches Hg (1027.9 mb) [Sea level pressure: 1028.5 mb]
Winds:from the SE (130 degrees) at 6 MPH (5 knots; 2.6 m/s)
Visibility: 2.00 sm ( 3.22 km)
Ceiling:200 feet AGL
Clouds: overcast cloud deck at 200 feet AGL
Weather:-DZ BR (light drizzle, mist)